Terminal Aerodrome Forecast
Issued by NWS

Home | Current Version | Previous Version | Text Only | Print | Product List | Glossary On
Versions: 1 2 3 4 5 6 7 8 9 10 11 12 13 14 15 16 17 18 19 20 21 22 23 24 25 26 27 28 29 30
000
FTUS41 KBTV 261100
TAFPBG
TAF
KPBG 261139Z 2612/2712 00000KT P6SM SCT150
     FM261600 21007KT P6SM SCT060 BKN150
     FM270000 VRB03KT P6SM BKN070
     FM270700 17004KT P6SM -SHRA OVC060
     FM271100 17006KT 5SM -SHRA BR OVC035=

USA.gov is the U.S. government's official web portal to all federal, state and local government web resources and services.